sensor_id;sensor_type;location;lat;lon;timestamp;temperature;humidity
38726;DHT22;24474;48.906;8.808;2022-09-13T00:00:48;16.00;99.90
38726;DHT22;24474;48.906;8.808;2022-09-13T00:03:14;16.00;99.90
38726;DHT22;24474;48.906;8.808;2022-09-13T00:05:41;16.00;99.90
38726;DHT22;24474;48.906;8.808;2022-09-13T00:08:08;16.00;99.90
38726;DHT22;24474;48.906;8.808;2022-09-13T00:10:36;16.00;99.90
38726;DHT22;24474;48.906;8.808;2022-09-13T00:13:03;16.00;99.90
38726;DHT22;24474;48.906;8.808;2022-09-13T00:15:30;16.00;99.90
38726;DHT22;24474;48.906;8.808;2022-09-13T00:17:56;15.90;99.90
38726;DHT22;24474;48.906;8.808;2022-09-13T00:20:22;15.90;99.90
38726;DHT22;24474;48.906;8.808;2022-09-13T00:22:48;15.90;99.90
38726;DHT22;24474;48.906;8.808;2022-09-13T00:25:13;15.90;99.90
38726;DHT22;24474;48.906;8.808;2022-09-13T00:27:39;15.90;99.90
38726;DHT22;24474;48.906;8.808;2022-09-13T00:30:06;15.90;99.90
38726;DHT22;24474;48.906;8.808;2022-09-13T00:32:34;15.90;99.90
38726;DHT22;24474;48.906;8.808;2022-09-13T00:35:02;15.90;99.90
38726;DHT22;24474;48.906;8.808;2022-09-13T00:37:28;15.80;99.90
38726;DHT22;24474;48.906;8.808;2022-09-13T00:39:53;15.80;99.90
38726;DHT22;24474;48.906;8.808;2022-09-13T00:42:24;15.70;99.90
38726;DHT22;24474;48.906;8.808;2022-09-13T00:47:55;15.70;99.90
38726;DHT22;24474;48.906;8.808;2022-09-13T00:50:28;15.70;99.90
38726;DHT22;24474;48.906;8.808;2022-09-13T00:53:21;15.70;99.90
38726;DHT22;24474;48.906;8.808;2022-09-13T00:58:51;15.70;99.90
38726;DHT22;24474;48.906;8.808;2022-09-13T01:01:20;15.60;99.90
38726;DHT22;24474;48.906;8.808;2022-09-13T01:03:48;15.60;99.90
38726;DHT22;24474;48.906;8.808;2022-09-13T01:06:21;15.50;99.90
38726;DHT22;24474;48.906;8.808;2022-09-13T01:08:51;15.50;99.90
38726;DHT22;24474;48.906;8.808;2022-09-13T01:11:44;15.50;99.90
38726;DHT22;24474;48.906;8.808;2022-09-13T01:14:14;15.50;99.90
38726;DHT22;24474;48.906;8.808;2022-09-13T01:16:41;15.40;99.90
38726;DHT22;24474;48.906;8.808;2022-09-13T01:19:09;15.40;99.90
38726;DHT22;24474;48.906;8.808;2022-09-13T01:31:27;15.20;99.90
38726;DHT22;24474;48.906;8.808;2022-09-13T01:36:53;15.10;99.90
38726;DHT22;24474;48.906;8.808;2022-09-13T01:39:31;15.10;99.90
38726;DHT22;24474;48.906;8.808;2022-09-13T01:53:28;14.90;99.90
38726;DHT22;24474;48.906;8.808;2022-09-13T01:59:04;14.80;99.90
38726;DHT22;24474;48.906;8.808;2022-09-13T02:02:07;14.80;99.90
38726;DHT22;24474;48.906;8.808;2022-09-13T02:04:38;14.80;99.90
38726;DHT22;24474;48.906;8.808;2022-09-13T02:07:29;14.70;99.90
38726;DHT22;24474;48.906;8.808;2022-09-13T02:09:59;14.70;99.90
38726;DHT22;24474;48.906;8.808;2022-09-13T02:12:28;14.70;99.90
38726;DHT22;24474;48.906;8.808;2022-09-13T02:15:17;14.70;99.90
38726;DHT22;24474;48.906;8.808;2022-09-13T02:17:53;14.60;99.90
38726;DHT22;24474;48.906;8.808;2022-09-13T02:20:25;14.60;99.90
38726;DHT22;24474;48.906;8.808;2022-09-13T02:22:55;14.60;99.90
38726;DHT22;24474;48.906;8.808;2022-09-13T02:25:24;14.60;99.90
38726;DHT22;24474;48.906;8.808;2022-09-13T02:27:54;14.50;99.90
38726;DHT22;24474;48.906;8.808;2022-09-13T02:30:25;14.50;99.90
38726;DHT22;24474;48.906;8.808;2022-09-13T02:33:02;14.50;99.90
38726;DHT22;24474;48.906;8.808;2022-09-13T02:35:37;14.50;99.90
38726;DHT22;24474;48.906;8.808;2022-09-13T02:38:12;14.40;99.90
38726;DHT22;24474;48.906;8.808;2022-09-13T02:40:42;14.40;99.90
38726;DHT22;24474;48.906;8.808;2022-09-13T02:43:18;14.30;99.90
38726;DHT22;24474;48.906;8.808;2022-09-13T02:45:54;14.30;99.90
38726;DHT22;24474;48.906;8.808;2022-09-13T02:51:23;14.20;99.90
38726;DHT22;24474;48.906;8.808;2022-09-13T02:54:08;14.20;99.90
38726;DHT22;24474;48.906;8.808;2022-09-13T02:56:54;14.20;99.90
38726;DHT22;24474;48.906;8.808;2022-09-13T02:59:22;14.20;99.90
38726;DHT22;24474;48.906;8.808;2022-09-13T03:04:19;14.10;99.90
38726;DHT22;24474;48.906;8.808;2022-09-13T03:06:48;14.10;99.90
38726;DHT22;24474;48.906;8.808;2022-09-13T03:09:15;14.10;99.90
38726;DHT22;24474;48.906;8.808;2022-09-13T03:11:55;14.10;99.90
38726;DHT22;24474;48.906;8.808;2022-09-13T03:17:31;14.00;99.90
38726;DHT22;24474;48.906;8.808;2022-09-13T03:20:53;14.00;99.90
38726;DHT22;24474;48.906;8.808;2022-09-13T03:23:45;14.00;99.90
38726;DHT22;24474;48.906;8.808;2022-09-13T03:26:39;14.00;99.90
38726;DHT22;24474;48.906;8.808;2022-09-13T03:32:09;14.00;99.90
38726;DHT22;24474;48.906;8.808;2022-09-13T03:34:39;14.00;99.90
38726;DHT22;24474;48.906;8.808;2022-09-13T03:40:06;13.90;99.90
38726;DHT22;24474;48.906;8.808;2022-09-13T03:42:41;13.90;99.90
38726;DHT22;24474;48.906;8.808;2022-09-13T03:45:10;13.80;99.90
38726;DHT22;24474;48.906;8.808;2022-09-13T03:47:39;13.80;99.90
38726;DHT22;24474;48.906;8.808;2022-09-13T03:50:07;13.80;99.90
38726;DHT22;24474;48.906;8.808;2022-09-13T03:52:34;13.80;99.90
38726;DHT22;24474;48.906;8.808;2022-09-13T03:55:00;13.80;99.90
38726;DHT22;24474;48.906;8.808;2022-09-13T03:57:27;13.80;99.90
38726;DHT22;24474;48.906;8.808;2022-09-13T03:59:54;13.80;99.90
38726;DHT22;24474;48.906;8.808;2022-09-13T04:02:22;13.80;99.90
38726;DHT22;24474;48.906;8.808;2022-09-13T04:04:49;13.80;99.90
38726;DHT22;24474;48.906;8.808;2022-09-13T04:07:19;13.80;99.90
38726;DHT22;24474;48.906;8.808;2022-09-13T04:09:45;13.70;99.90
38726;DHT22;24474;48.906;8.808;2022-09-13T04:12:12;13.70;99.90
38726;DHT22;24474;48.906;8.808;2022-09-13T04:14:39;13.70;99.90
38726;DHT22;24474;48.906;8.808;2022-09-13T04:17:07;13.80;99.90
38726;DHT22;24474;48.906;8.808;2022-09-13T04:19:33;13.80;99.90
38726;DHT22;24474;48.906;8.808;2022-09-13T04:21:59;13.80;99.90
38726;DHT22;24474;48.906;8.808;2022-09-13T04:24:27;13.80;99.90
38726;DHT22;24474;48.906;8.808;2022-09-13T04:26:54;13.70;99.90
38726;DHT22;24474;48.906;8.808;2022-09-13T04:29:21;13.60;99.90
38726;DHT22;24474;48.906;8.808;2022-09-13T04:31:48;13.70;99.90
38726;DHT22;24474;48.906;8.808;2022-09-13T04:34:14;13.70;99.90
38726;DHT22;24474;48.906;8.808;2022-09-13T04:36:40;13.80;99.90
38726;DHT22;24474;48.906;8.808;2022-09-13T04:39:06;13.70;99.90
38726;DHT22;24474;48.906;8.808;2022-09-13T04:41:32;13.70;99.90
38726;DHT22;24474;48.906;8.808;2022-09-13T04:43:59;13.80;99.90
38726;DHT22;24474;48.906;8.808;2022-09-13T04:46:24;13.70;99.90
38726;DHT22;24474;48.906;8.808;2022-09-13T04:48:51;13.70;99.90
38726;DHT22;24474;48.906;8.808;2022-09-13T04:51:19;13.70;99.90
38726;DHT22;24474;48.906;8.808;2022-09-13T04:53:53;13.70;99.90
38726;DHT22;24474;48.906;8.808;2022-09-13T04:56:20;13.70;99.90
38726;DHT22;24474;48.906;8.808;2022-09-13T04:58:46;13.70;99.90
38726;DHT22;24474;48.906;8.808;2022-09-13T05:01:12;13.70;99.90
38726;DHT22;24474;48.906;8.808;2022-09-13T05:03:39;13.70;99.90
38726;DHT22;24474;48.906;8.808;2022-09-13T05:06:07;13.70;99.90
38726;DHT22;24474;48.906;8.808;2022-09-13T05:08:36;13.60;99.90
38726;DHT22;24474;48.906;8.808;2022-09-13T05:11:03;13.70;99.90
38726;DHT22;24474;48.906;8.808;2022-09-13T05:13:30;13.70;99.90
38726;DHT22;24474;48.906;8.808;2022-09-13T05:15:58;13.70;99.90
38726;DHT22;24474;48.906;8.808;2022-09-13T05:18:30;13.70;99.90
38726;DHT22;24474;48.906;8.808;2022-09-13T05:20:58;13.80;99.90
38726;DHT22;24474;48.906;8.808;2022-09-13T05:23:25;13.70;99.90
38726;DHT22;24474;48.906;8.808;2022-09-13T05:25:56;13.80;99.90
38726;DHT22;24474;48.906;8.808;2022-09-13T05:28:22;13.80;99.90
38726;DHT22;24474;48.906;8.808;2022-09-13T05:31:01;13.80;99.90
38726;DHT22;24474;48.906;8.808;2022-09-13T05:33:31;13.80;99.90
38726;DHT22;24474;48.906;8.808;2022-09-13T05:35:59;13.80;99.90
38726;DHT22;24474;48.906;8.808;2022-09-13T05:38:25;13.80;99.90
38726;DHT22;24474;48.906;8.808;2022-09-13T05:40:59;13.80;99.90
38726;DHT22;24474;48.906;8.808;2022-09-13T05:43:29;13.90;99.90
38726;DHT22;24474;48.906;8.808;2022-09-13T05:46:12;13.90;99.90
38726;DHT22;24474;48.906;8.808;2022-09-13T05:48:39;13.90;99.90
38726;DHT22;24474;48.906;8.808;2022-09-13T05:51:17;13.90;99.90
38726;DHT22;24474;48.906;8.808;2022-09-13T05:53:45;13.90;99.90
38726;DHT22;24474;48.906;8.808;2022-09-13T05:56:14;14.00;99.90
38726;DHT22;24474;48.906;8.808;2022-09-13T05:58:42;14.00;99.90
38726;DHT22;24474;48.906;8.808;2022-09-13T06:01:10;14.00;99.90
38726;DHT22;24474;48.906;8.808;2022-09-13T06:03:38;14.10;99.90
38726;DHT22;24474;48.906;8.808;2022-09-13T06:06:06;14.10;99.90
38726;DHT22;24474;48.906;8.808;2022-09-13T06:08:36;14.10;99.90
38726;DHT22;24474;48.906;8.808;2022-09-13T06:11:08;14.00;99.90
38726;DHT22;24474;48.906;8.808;2022-09-13T06:13:35;14.10;99.90
38726;DHT22;24474;48.906;8.808;2022-09-13T06:16:02;14.10;99.90
38726;DHT22;24474;48.906;8.808;2022-09-13T06:18:33;14.10;99.90
38726;DHT22;24474;48.906;8.808;2022-09-13T06:21:01;14.10;99.90
38726;DHT22;24474;48.906;8.808;2022-09-13T06:23:28;14.20;99.90
38726;DHT22;24474;48.906;8.808;2022-09-13T06:26:04;14.20;99.90
38726;DHT22;24474;48.906;8.808;2022-09-13T06:28:30;14.20;99.90
38726;DHT22;24474;48.906;8.808;2022-09-13T06:33:31;14.20;99.90
38726;DHT22;24474;48.906;8.808;2022-09-13T06:36:04;14.20;99.90
38726;DHT22;24474;48.906;8.808;2022-09-13T06:38:30;14.30;99.90
38726;DHT22;24474;48.906;8.808;2022-09-13T06:41:13;14.30;99.90
38726;DHT22;24474;48.906;8.808;2022-09-13T06:43:40;14.40;99.90
38726;DHT22;24474;48.906;8.808;2022-09-13T06:46:13;14.50;99.90
38726;DHT22;24474;48.906;8.808;2022-09-13T06:48:42;14.50;99.90
38726;DHT22;24474;48.906;8.808;2022-09-13T06:51:16;14.60;99.90
38726;DHT22;24474;48.906;8.808;2022-09-13T06:53:43;14.60;99.90
38726;DHT22;24474;48.906;8.808;2022-09-13T06:56:12;14.70;99.90
38726;DHT22;24474;48.906;8.808;2022-09-13T06:58:40;14.70;99.90
38726;DHT22;24474;48.906;8.808;2022-09-13T07:01:28;14.70;99.90
38726;DHT22;24474;48.906;8.808;2022-09-13T07:04:03;14.80;99.90
38726;DHT22;24474;48.906;8.808;2022-09-13T07:06:31;14.80;99.90
38726;DHT22;24474;48.906;8.808;2022-09-13T07:08:58;14.90;99.90
38726;DHT22;24474;48.906;8.808;2022-09-13T07:11:30;15.00;99.90
38726;DHT22;24474;48.906;8.808;2022-09-13T07:13:57;15.00;99.90
38726;DHT22;24474;48.906;8.808;2022-09-13T07:16:28;15.10;99.90
38726;DHT22;24474;48.906;8.808;2022-09-13T07:18:56;15.20;99.90
38726;DHT22;24474;48.906;8.808;2022-09-13T07:21:23;15.30;99.90
38726;DHT22;24474;48.906;8.808;2022-09-13T07:23:50;15.40;99.90
38726;DHT22;24474;48.906;8.808;2022-09-13T07:26:16;15.60;99.90
38726;DHT22;24474;48.906;8.808;2022-09-13T07:28:46;15.70;99.90
38726;DHT22;24474;48.906;8.808;2022-09-13T07:31:18;15.80;99.90
38726;DHT22;24474;48.906;8.808;2022-09-13T07:33:56;15.90;99.90
38726;DHT22;24474;48.906;8.808;2022-09-13T07:36:22;16.00;99.90
38726;DHT22;24474;48.906;8.808;2022-09-13T07:38:49;16.10;99.90
38726;DHT22;24474;48.906;8.808;2022-09-13T07:41:17;16.30;99.90
38726;DHT22;24474;48.906;8.808;2022-09-13T07:43:43;16.30;99.90
38726;DHT22;24474;48.906;8.808;2022-09-13T07:46:16;16.40;99.90
38726;DHT22;24474;48.906;8.808;2022-09-13T07:48:43;16.50;99.90
38726;DHT22;24474;48.906;8.808;2022-09-13T07:51:14;16.50;99.90
38726;DHT22;24474;48.906;8.808;2022-09-13T07:53:42;16.70;99.90
38726;DHT22;24474;48.906;8.808;2022-09-13T07:56:10;16.80;99.90
38726;DHT22;24474;48.906;8.808;2022-09-13T07:58:37;16.90;99.90
38726;DHT22;24474;48.906;8.808;2022-09-13T08:01:07;17.00;99.90
38726;DHT22;24474;48.906;8.808;2022-09-13T08:03:34;17.10;99.90
38726;DHT22;24474;48.906;8.808;2022-09-13T08:06:00;17.10;99.90
38726;DHT22;24474;48.906;8.808;2022-09-13T08:08:27;17.30;99.90
38726;DHT22;24474;48.906;8.808;2022-09-13T08:10:53;17.40;99.90
38726;DHT22;24474;48.906;8.808;2022-09-13T08:13:20;17.50;99.90
38726;DHT22;24474;48.906;8.808;2022-09-13T08:15:48;17.50;99.90
38726;DHT22;24474;48.906;8.808;2022-09-13T08:18:18;17.60;99.90
38726;DHT22;24474;48.906;8.808;2022-09-13T08:20:43;17.60;99.90
38726;DHT22;24474;48.906;8.808;2022-09-13T08:23:10;17.80;99.90
38726;DHT22;24474;48.906;8.808;2022-09-13T08:25:37;17.90;99.90
38726;DHT22;24474;48.906;8.808;2022-09-13T08:28:15;18.10;99.90
38726;DHT22;24474;48.906;8.808;2022-09-13T08:30:41;18.10;99.90
38726;DHT22;24474;48.906;8.808;2022-09-13T08:33:09;18.20;99.90
38726;DHT22;24474;48.906;8.808;2022-09-13T08:35:35;18.20;99.90
38726;DHT22;24474;48.906;8.808;2022-09-13T08:38:02;18.30;99.90
38726;DHT22;24474;48.906;8.808;2022-09-13T08:40:32;18.40;99.90
38726;DHT22;24474;48.906;8.808;2022-09-13T08:46:22;18.60;99.90
38726;DHT22;24474;48.906;8.808;2022-09-13T08:48:51;18.70;99.90
38726;DHT22;24474;48.906;8.808;2022-09-13T08:53:54;18.90;99.90
38726;DHT22;24474;48.906;8.808;2022-09-13T08:56:26;19.00;99.90
38726;DHT22;24474;48.906;8.808;2022-09-13T09:07:50;19.60;99.90
38726;DHT22;24474;48.906;8.808;2022-09-13T09:10:47;19.70;99.90
38726;DHT22;24474;48.906;8.808;2022-09-13T09:15:50;20.10;99.90
38726;DHT22;24474;48.906;8.808;2022-09-13T09:18:36;20.10;99.90
38726;DHT22;24474;48.906;8.808;2022-09-13T09:21:03;20.20;99.90
38726;DHT22;24474;48.906;8.808;2022-09-13T09:23:37;20.20;99.90
38726;DHT22;24474;48.906;8.808;2022-09-13T09:26:22;20.20;99.90
38726;DHT22;24474;48.906;8.808;2022-09-13T09:29:00;20.20;99.90
38726;DHT22;24474;48.906;8.808;2022-09-13T09:31:43;20.20;99.90
38726;DHT22;24474;48.906;8.808;2022-09-13T09:39:28;20.10;99.90
38726;DHT22;24474;48.906;8.808;2022-09-13T09:41:56;20.10;99.90
38726;DHT22;24474;48.906;8.808;2022-09-13T09:44:26;20.10;99.90
38726;DHT22;24474;48.906;8.808;2022-09-13T09:47:00;20.10;99.90
38726;DHT22;24474;48.906;8.808;2022-09-13T09:49:46;20.20;99.90
38726;DHT22;24474;48.906;8.808;2022-09-13T09:55:29;20.30;99.90
38726;DHT22;24474;48.906;8.808;2022-09-13T09:57:59;20.40;99.90
38726;DHT22;24474;48.906;8.808;2022-09-13T10:00:30;20.50;99.90
38726;DHT22;24474;48.906;8.808;2022-09-13T10:02:59;20.60;99.90
38726;DHT22;24474;48.906;8.808;2022-09-13T10:05:26;20.60;99.90
38726;DHT22;24474;48.906;8.808;2022-09-13T10:07:55;20.70;99.90
38726;DHT22;24474;48.906;8.808;2022-09-13T10:10:39;20.90;99.90
38726;DHT22;24474;48.906;8.808;2022-09-13T10:13:16;21.10;99.90
38726;DHT22;24474;48.906;8.808;2022-09-13T10:15:56;21.20;99.90
38726;DHT22;24474;48.906;8.808;2022-09-13T10:18:26;21.30;99.90
38726;DHT22;24474;48.906;8.808;2022-09-13T10:23:47;21.50;99.90
38726;DHT22;24474;48.906;8.808;2022-09-13T10:26:24;21.50;99.90
38726;DHT22;24474;48.906;8.808;2022-09-13T10:28:59;21.60;99.90
38726;DHT22;24474;48.906;8.808;2022-09-13T10:31:37;21.70;99.90
38726;DHT22;24474;48.906;8.808;2022-09-13T10:34:29;21.70;99.90
38726;DHT22;24474;48.906;8.808;2022-09-13T10:37:02;21.80;99.90
38726;DHT22;24474;48.906;8.808;2022-09-13T10:39:31;21.90;99.90
38726;DHT22;24474;48.906;8.808;2022-09-13T10:42:01;21.90;99.90
38726;DHT22;24474;48.906;8.808;2022-09-13T10:44:42;22.00;99.90
38726;DHT22;24474;48.906;8.808;2022-09-13T10:47:17;22.10;99.90
38726;DHT22;24474;48.906;8.808;2022-09-13T10:49:50;22.20;99.90
38726;DHT22;24474;48.906;8.808;2022-09-13T10:52:30;22.30;99.90
38726;DHT22;24474;48.906;8.808;2022-09-13T10:57:47;22.70;99.90
38726;DHT22;24474;48.906;8.808;2022-09-13T11:00:19;22.70;99.90
38726;DHT22;24474;48.906;8.808;2022-09-13T11:05:28;22.90;99.90
38726;DHT22;24474;48.906;8.808;2022-09-13T11:11:09;23.10;99.90
38726;DHT22;24474;48.906;8.808;2022-09-13T11:25:55;23.40;99.90
38726;DHT22;24474;48.906;8.808;2022-09-13T11:34:09;23.50;99.90
38726;DHT22;24474;48.906;8.808;2022-09-13T11:36:57;23.50;99.90
38726;DHT22;24474;48.906;8.808;2022-09-13T11:39:31;23.60;99.90
38726;DHT22;24474;48.906;8.808;2022-09-13T11:45:01;23.70;99.50
38726;DHT22;24474;48.906;8.808;2022-09-13T11:53:04;23.90;98.90
38726;DHT22;24474;48.906;8.808;2022-09-13T11:55:50;23.90;99.00
38726;DHT22;24474;48.906;8.808;2022-09-13T11:59:04;24.00;98.80
38726;DHT22;24474;48.906;8.808;2022-09-13T12:01:12;24.00;98.50
38726;DHT22;24474;48.906;8.808;2022-09-13T12:03:56;24.10;97.70
38726;DHT22;24474;48.906;8.808;2022-09-13T12:06:30;24.20;97.40
38726;DHT22;24474;48.906;8.808;2022-09-13T12:09:30;24.30;98.10
38726;DHT22;24474;48.906;8.808;2022-09-13T12:14:49;24.30;97.80
38726;DHT22;24474;48.906;8.808;2022-09-13T12:17:24;24.40;96.60
38726;DHT22;24474;48.906;8.808;2022-09-13T12:19:54;24.40;97.20
38726;DHT22;24474;48.906;8.808;2022-09-13T12:22:22;24.40;96.20
38726;DHT22;24474;48.906;8.808;2022-09-13T12:24:58;24.40;96.80
38726;DHT22;24474;48.906;8.808;2022-09-13T12:30:36;24.40;97.40
38726;DHT22;24474;48.906;8.808;2022-09-13T12:33:05;24.30;97.50
38726;DHT22;24474;48.906;8.808;2022-09-13T12:35:46;24.30;98.10
38726;DHT22;24474;48.906;8.808;2022-09-13T12:46:20;24.30;97.80
38726;DHT22;24474;48.906;8.808;2022-09-13T13:02:33;24.50;97.40
38726;DHT22;24474;48.906;8.808;2022-09-13T13:05:37;24.60;97.90
38726;DHT22;24474;48.906;8.808;2022-09-13T13:08:14;24.50;98.00
38726;DHT22;24474;48.906;8.808;2022-09-13T13:10:42;24.60;97.90
38726;DHT22;24474;48.906;8.808;2022-09-13T13:13:35;24.60;97.80
38726;DHT22;24474;48.906;8.808;2022-09-13T13:21:03;24.80;98.20
38726;DHT22;24474;48.906;8.808;2022-09-13T13:23:33;24.90;98.30
38726;DHT22;24474;48.906;8.808;2022-09-13T13:29:22;25.00;97.70
38726;DHT22;24474;48.906;8.808;2022-09-13T13:37:05;25.00;98.10
38726;DHT22;24474;48.906;8.808;2022-09-13T13:40:09;25.00;97.20
38726;DHT22;24474;48.906;8.808;2022-09-13T13:42:37;25.00;98.10
38726;DHT22;24474;48.906;8.808;2022-09-13T13:45:20;25.00;96.70
38726;DHT22;24474;48.906;8.808;2022-09-13T13:48:11;25.00;97.00
38726;DHT22;24474;48.906;8.808;2022-09-13T13:53:36;25.00;96.80
38726;DHT22;24474;48.906;8.808;2022-09-13T13:56:49;25.00;96.20
38726;DHT22;24474;48.906;8.808;2022-09-13T13:59:29;25.00;96.10
38726;DHT22;24474;48.906;8.808;2022-09-13T14:01:57;25.00;96.60
38726;DHT22;24474;48.906;8.808;2022-09-13T14:07:35;25.00;96.50
38726;DHT22;24474;48.906;8.808;2022-09-13T14:16:05;25.00;96.50
38726;DHT22;24474;48.906;8.808;2022-09-13T14:21:28;25.00;96.10
38726;DHT22;24474;48.906;8.808;2022-09-13T14:24:17;25.00;96.50
38726;DHT22;24474;48.906;8.808;2022-09-13T14:26:48;25.10;96.30
38726;DHT22;24474;48.906;8.808;2022-09-13T14:29:20;25.20;96.30
38726;DHT22;24474;48.906;8.808;2022-09-13T14:31:48;25.20;96.10
38726;DHT22;24474;48.906;8.808;2022-09-13T14:34:28;25.20;96.30
38726;DHT22;24474;48.906;8.808;2022-09-13T14:37:06;25.20;96.00
38726;DHT22;24474;48.906;8.808;2022-09-13T14:39:53;25.20;96.40
38726;DHT22;24474;48.906;8.808;2022-09-13T14:42:19;25.30;96.40
38726;DHT22;24474;48.906;8.808;2022-09-13T14:44:46;25.30;95.90
38726;DHT22;24474;48.906;8.808;2022-09-13T14:47:42;25.30;95.30
38726;DHT22;24474;48.906;8.808;2022-09-13T14:50:19;25.30;95.60
38726;DHT22;24474;48.906;8.808;2022-09-13T14:52:53;25.30;95.80
38726;DHT22;24474;48.906;8.808;2022-09-13T14:55:25;25.30;95.70
38726;DHT22;24474;48.906;8.808;2022-09-13T14:58:06;25.20;95.50
38726;DHT22;24474;48.906;8.808;2022-09-13T15:00:54;25.20;95.10
38726;DHT22;24474;48.906;8.808;2022-09-13T15:03:22;25.10;95.20
38726;DHT22;24474;48.906;8.808;2022-09-13T15:05:52;25.10;95.30
38726;DHT22;24474;48.906;8.808;2022-09-13T15:08:25;25.10;95.10
38726;DHT22;24474;48.906;8.808;2022-09-13T15:10:52;25.10;95.20
38726;DHT22;24474;48.906;8.808;2022-09-13T15:13:21;25.00;95.10
38726;DHT22;24474;48.906;8.808;2022-09-13T15:15:51;25.00;95.50
38726;DHT22;24474;48.906;8.808;2022-09-13T15:18:24;25.00;95.80
38726;DHT22;24474;48.906;8.808;2022-09-13T15:23:53;25.00;95.80
38726;DHT22;24474;48.906;8.808;2022-09-13T15:26:20;25.00;96.00
38726;DHT22;24474;48.906;8.808;2022-09-13T15:31:20;24.90;96.30
38726;DHT22;24474;48.906;8.808;2022-09-13T15:33:46;24.90;96.30
38726;DHT22;24474;48.906;8.808;2022-09-13T15:39:09;24.90;96.30
38726;DHT22;24474;48.906;8.808;2022-09-13T15:41:57;24.90;96.70
38726;DHT22;24474;48.906;8.808;2022-09-13T15:44:27;24.80;96.70
38726;DHT22;24474;48.906;8.808;2022-09-13T15:46:56;24.80;97.30
38726;DHT22;24474;48.906;8.808;2022-09-13T15:49:27;24.80;96.90
38726;DHT22;24474;48.906;8.808;2022-09-13T15:51:58;24.80;96.80
38726;DHT22;24474;48.906;8.808;2022-09-13T15:54:51;24.70;96.80
38726;DHT22;24474;48.906;8.808;2022-09-13T15:59:48;24.60;97.60
38726;DHT22;24474;48.906;8.808;2022-09-13T16:02:27;24.60;97.40
38726;DHT22;24474;48.906;8.808;2022-09-13T16:04:54;24.60;97.50
38726;DHT22;24474;48.906;8.808;2022-09-13T16:07:22;24.60;97.80
38726;DHT22;24474;48.906;8.808;2022-09-13T16:09:48;24.50;98.00
38726;DHT22;24474;48.906;8.808;2022-09-13T16:12:14;24.50;98.10
38726;DHT22;24474;48.906;8.808;2022-09-13T16:14:40;24.50;97.90
38726;DHT22;24474;48.906;8.808;2022-09-13T16:17:11;24.40;97.90
38726;DHT22;24474;48.906;8.808;2022-09-13T16:19:38;24.40;98.00
38726;DHT22;24474;48.906;8.808;2022-09-13T16:22:03;24.40;98.00
38726;DHT22;24474;48.906;8.808;2022-09-13T16:24:34;24.40;97.90
38726;DHT22;24474;48.906;8.808;2022-09-13T16:27:00;24.30;97.80
38726;DHT22;24474;48.906;8.808;2022-09-13T16:29:26;24.40;97.70
38726;DHT22;24474;48.906;8.808;2022-09-13T16:31:51;24.30;97.90
38726;DHT22;24474;48.906;8.808;2022-09-13T16:34:19;24.30;98.00
38726;DHT22;24474;48.906;8.808;2022-09-13T16:36:46;24.20;98.20
38726;DHT22;24474;48.906;8.808;2022-09-13T16:39:12;24.20;98.20
38726;DHT22;24474;48.906;8.808;2022-09-13T16:41:38;24.20;98.50
38726;DHT22;24474;48.906;8.808;2022-09-13T16:44:05;24.10;98.20
38726;DHT22;24474;48.906;8.808;2022-09-13T16:46:30;24.10;98.00
38726;DHT22;24474;48.906;8.808;2022-09-13T16:48:57;24.10;98.00
38726;DHT22;24474;48.906;8.808;2022-09-13T16:51:23;24.00;97.90
38726;DHT22;24474;48.906;8.808;2022-09-13T16:53:50;24.00;97.90
38726;DHT22;24474;48.906;8.808;2022-09-13T16:56:18;24.00;97.30
38726;DHT22;24474;48.906;8.808;2022-09-13T16:58:49;23.90;97.20
38726;DHT22;24474;48.906;8.808;2022-09-13T17:01:28;23.90;97.10
38726;DHT22;24474;48.906;8.808;2022-09-13T17:03:54;23.90;97.70
38726;DHT22;24474;48.906;8.808;2022-09-13T17:06:22;23.80;97.60
38726;DHT22;24474;48.906;8.808;2022-09-13T17:08:54;23.80;98.10
38726;DHT22;24474;48.906;8.808;2022-09-13T17:11:21;23.80;98.80
38726;DHT22;24474;48.906;8.808;2022-09-13T17:13:50;23.80;98.30
38726;DHT22;24474;48.906;8.808;2022-09-13T17:16:29;23.70;99.50
38726;DHT22;24474;48.906;8.808;2022-09-13T17:18:59;23.70;99.20
38726;DHT22;24474;48.906;8.808;2022-09-13T17:21:25;23.70;98.60
38726;DHT22;24474;48.906;8.808;2022-09-13T17:23:52;23.60;98.10
38726;DHT22;24474;48.906;8.808;2022-09-13T17:26:17;23.60;98.70
38726;DHT22;24474;48.906;8.808;2022-09-13T17:28:43;23.50;98.30
38726;DHT22;24474;48.906;8.808;2022-09-13T17:31:08;23.50;98.20
38726;DHT22;24474;48.906;8.808;2022-09-13T17:33:34;23.40;98.10
38726;DHT22;24474;48.906;8.808;2022-09-13T17:36:06;23.40;98.10
38726;DHT22;24474;48.906;8.808;2022-09-13T17:38:33;23.40;98.50
38726;DHT22;24474;48.906;8.808;2022-09-13T17:43:40;23.30;99.00
38726;DHT22;24474;48.906;8.808;2022-09-13T17:46:11;23.30;99.80
38726;DHT22;24474;48.906;8.808;2022-09-13T17:48:38;23.20;99.50
38726;DHT22;24474;48.906;8.808;2022-09-13T17:51:10;23.20;99.70
38726;DHT22;24474;48.906;8.808;2022-09-13T17:53:42;23.10;99.20
38726;DHT22;24474;48.906;8.808;2022-09-13T17:56:08;23.10;98.70
38726;DHT22;24474;48.906;8.808;2022-09-13T17:58:34;23.10;98.70
38726;DHT22;24474;48.906;8.808;2022-09-13T18:01:06;23.00;98.50
38726;DHT22;24474;48.906;8.808;2022-09-13T18:03:32;23.00;98.60
38726;DHT22;24474;48.906;8.808;2022-09-13T18:05:59;22.90;99.10
38726;DHT22;24474;48.906;8.808;2022-09-13T18:08:26;22.90;98.50
38726;DHT22;24474;48.906;8.808;2022-09-13T18:10:53;22.80;98.30
38726;DHT22;24474;48.906;8.808;2022-09-13T18:13:19;22.80;98.20
38726;DHT22;24474;48.906;8.808;2022-09-13T18:15:57;22.70;98.30
38726;DHT22;24474;48.906;8.808;2022-09-13T18:18:22;22.60;98.60
38726;DHT22;24474;48.906;8.808;2022-09-13T18:20:48;22.60;98.90
38726;DHT22;24474;48.906;8.808;2022-09-13T18:23:14;22.50;98.90
38726;DHT22;24474;48.906;8.808;2022-09-13T18:25:39;22.50;99.20
38726;DHT22;24474;48.906;8.808;2022-09-13T18:28:05;22.40;99.00
38726;DHT22;24474;48.906;8.808;2022-09-13T18:30:31;22.30;98.70
38726;DHT22;24474;48.906;8.808;2022-09-13T18:32:57;22.30;98.70
38726;DHT22;24474;48.906;8.808;2022-09-13T18:35:23;22.30;98.90
38726;DHT22;24474;48.906;8.808;2022-09-13T18:37:51;22.20;99.00
38726;DHT22;24474;48.906;8.808;2022-09-13T18:40:17;22.20;98.90
38726;DHT22;24474;48.906;8.808;2022-09-13T18:42:42;22.20;98.80
38726;DHT22;24474;48.906;8.808;2022-09-13T18:45:08;22.20;98.80
38726;DHT22;24474;48.906;8.808;2022-09-13T18:47:34;22.10;99.90
38726;DHT22;24474;48.906;8.808;2022-09-13T18:50:00;22.10;99.30
38726;DHT22;24474;48.906;8.808;2022-09-13T18:52:26;22.10;98.90
38726;DHT22;24474;48.906;8.808;2022-09-13T18:54:52;22.00;99.80
38726;DHT22;24474;48.906;8.808;2022-09-13T18:57:18;22.00;99.90
38726;DHT22;24474;48.906;8.808;2022-09-13T18:59:43;21.90;99.90